Time;durP1;ratioP1;P1;durP2;ratioP2;P2;SDS_P1;SDS_P2;PMS_P1;PMS_P2;Temp;Humidity;BMP_temperature;BMP_pressure;BME280_temperature;BME280_humidity;BME280_pressure;Samples;Min_cycle;Max_cycle;Signal;HPM_P1;HPM_P2
2023/08/18 00:00:31;;;;;;;40.97;28.00;;;22.10;99.90;;;;;;5051946;28;20028;-84
2023/08/18 00:02:56;;;;;;;40.70;28.88;;;22.10;99.90;;;;;;5053629;28;20033;-83
2023/08/18 00:05:22;;;;;;;37.40;28.55;;;22.10;99.90;;;;;;5052766;28;20029;-83
2023/08/18 00:07:48;;;;;;;39.58;28.08;;;22.20;99.90;;;;;;5052224;28;20033;-84
2023/08/18 00:10:14;;;;;;;37.22;27.40;;;22.20;99.90;;;;;;5052469;28;20116;-82
2023/08/18 00:12:40;;;;;;;38.80;28.17;;;22.10;99.90;;;;;;5052858;28;20033;-82
2023/08/18 00:15:06;;;;;;;42.75;27.80;;;22.10;99.90;;;;;;5052022;28;20048;-82
2023/08/18 00:17:31;;;;;;;37.45;28.55;;;22.00;99.90;;;;;;5053229;28;20029;-83
2023/08/18 00:19:57;;;;;;;37.97;28.38;;;22.00;99.90;;;;;;5051802;28;20478;-83
2023/08/18 00:22:23;;;;;;;40.20;29.80;;;22.00;99.90;;;;;;5052108;28;20025;-83
2023/08/18 00:24:48;;;;;;;40.17;29.98;;;22.10;99.90;;;;;;5053054;28;20040;-83
2023/08/18 00:27:14;;;;;;;39.67;29.42;;;22.00;99.90;;;;;;5053012;28;20032;-83
2023/08/18 00:29:40;;;;;;;40.50;28.50;;;22.10;99.90;;;;;;5051985;28;20028;-83
2023/08/18 00:32:06;;;;;;;44.35;29.05;;;22.00;99.90;;;;;;5049877;28;20033;-83
2023/08/18 00:34:31;;;;;;;46.35;30.65;;;22.00;99.90;;;;;;5047087;28;20036;-81
2023/08/18 00:36:57;;;;;;;39.72;30.25;;;21.90;99.90;;;;;;5052901;28;20032;-82
2023/08/18 00:39:23;;;;;;;41.88;29.55;;;21.90;99.90;;;;;;5051991;28;20060;-83
2023/08/18 00:41:49;;;;;;;43.60;31.08;;;21.90;99.90;;;;;;5052992;28;20039;-83
2023/08/18 00:44:14;;;;;;;41.28;30.85;;;22.00;99.90;;;;;;5056641;28;20132;-83
2023/08/18 00:46:42;;;;;;;41.55;29.50;;;22.00;99.90;;;;;;5056052;28;20045;-83
2023/08/18 00:49:09;;;;;;;45.08;29.95;;;21.90;99.90;;;;;;5055252;28;20513;-82
2023/08/18 00:51:39;;;;;;;40.40;29.70;;;21.90;99.90;;;;;;5038179;28;20036;-84
2023/08/18 00:54:05;;;;;;;39.42;29.17;;;22.00;99.90;;;;;;5051912;28;20033;-83
2023/08/18 00:56:32;;;;;;;38.83;29.02;;;22.00;99.90;;;;;;5054913;28;20060;-81
2023/08/18 00:58:59;;;;;;;45.30;29.83;;;21.90;99.90;;;;;;5046586;28;20459;-83
2023/08/18 01:01:25;;;;;;;41.17;28.90;;;22.00;99.90;;;;;;5041372;28;20028;-82
2023/08/18 01:03:52;;;;;;;43.55;29.67;;;22.00;99.90;;;;;;5055195;28;20024;-83
2023/08/18 01:06:17;;;;;;;39.67;30.33;;;22.00;99.90;;;;;;5055292;28;20040;-82
2023/08/18 01:08:43;;;;;;;40.72;28.08;;;21.90;99.90;;;;;;5056597;28;20021;-83
2023/08/18 01:11:18;;;;;;;41.50;30.05;;;21.90;99.90;;;;;;5055171;28;20044;-83
2023/08/18 01:13:58;;;;;;;39.63;29.38;;;21.90;99.90;;;;;;5055287;28;20112;-83
2023/08/18 01:16:28;;;;;;;43.83;29.95;;;21.90;99.90;;;;;;5054815;28;20090;-84
2023/08/18 01:18:54;;;;;;;42.83;30.23;;;22.00;99.90;;;;;;5056677;28;20029;-82
2023/08/18 01:21:23;;;;;;;46.47;30.45;;;22.00;99.90;;;;;;5055080;28;20029;-82
2023/08/18 01:23:49;;;;;;;49.30;30.35;;;22.00;99.90;;;;;;5054898;28;20064;-84
2023/08/18 01:26:16;;;;;;;45.97;31.80;;;22.00;99.90;;;;;;5054945;28;20444;-82
2023/08/18 01:28:46;;;;;;;45.05;30.70;;;22.00;99.90;;;;;;5056451;28;20021;-82
2023/08/18 01:31:18;;;;;;;53.97;30.20;;;21.90;99.90;;;;;;5054534;28;20032;-84
2023/08/18 01:33:49;;;;;;;48.85;32.35;;;21.90;99.90;;;;;;5039297;28;20032;-83
2023/08/18 01:36:23;;;;;;;42.97;30.42;;;21.90;99.90;;;;;;5050970;28;20037;-82
2023/08/18 01:38:52;;;;;;;44.47;31.35;;;21.90;99.90;;;;;;5054904;28;20536;-82
2023/08/18 01:41:22;;;;;;;45.08;31.25;;;21.90;99.90;;;;;;5054403;28;20166;-82
2023/08/18 01:43:48;;;;;;;46.40;31.65;;;21.90;99.90;;;;;;5055684;28;20040;-81
2023/08/18 01:46:14;;;;;;;42.15;32.10;;;21.80;99.90;;;;;;5054534;28;20037;-82
2023/08/18 01:48:39;;;;;;;47.38;30.45;;;21.80;99.90;;;;;;5054631;28;20033;-82
2023/08/18 01:51:05;;;;;;;41.95;31.20;;;21.80;99.90;;;;;;5055129;28;20059;-84
2023/08/18 01:53:31;;;;;;;47.33;31.83;;;21.80;99.90;;;;;;5055377;28;20057;-83
2023/08/18 01:56:06;;;;;;;45.88;31.92;;;21.80;99.90;;;;;;5054150;28;20048;-84
2023/08/18 01:58:31;;;;;;;47.22;31.77;;;21.80;99.90;;;;;;5054142;28;20038;-82
2023/08/18 02:00:58;;;;;;;51.90;33.10;;;21.80;99.90;;;;;;5058962;28;20030;-83
2023/08/18 02:03:27;;;;;;;45.15;33.25;;;21.80;99.90;;;;;;5043655;28;20413;-83
2023/08/18 02:05:54;;;;;;;48.00;33.03;;;21.70;99.90;;;;;;5053864;28;20087;-82
2023/08/18 02:08:21;;;;;;;45.22;32.08;;;21.70;99.90;;;;;;5054151;28;20143;-83
2023/08/18 02:10:47;;;;;;;56.13;34.22;;;21.70;99.90;;;;;;5055658;28;20112;-82
2023/08/18 02:13:14;;;;;;;50.58;32.38;;;21.70;99.90;;;;;;5055167;28;20100;-83
2023/08/18 02:15:39;;;;;;;47.72;32.45;;;21.70;99.90;;;;;;5053989;28;20501;-84
2023/08/18 02:18:06;;;;;;;49.45;33.55;;;21.70;99.90;;;;;;5053955;28;20037;-83
2023/08/18 02:20:32;;;;;;;45.90;33.35;;;21.60;99.90;;;;;;5054899;28;20031;-84
2023/08/18 02:22:57;;;;;;;49.42;34.80;;;21.60;99.90;;;;;;5055143;28;20463;-82
2023/08/18 02:25:23;;;;;;;50.08;35.42;;;21.60;99.90;;;;;;5053498;28;20079;-84
2023/08/18 02:27:49;;;;;;;57.83;34.88;;;21.70;99.90;;;;;;5053724;28;20431;-83
2023/08/18 02:30:16;;;;;;;50.42;34.28;;;21.70;99.90;;;;;;5053719;28;20028;-84
2023/08/18 02:32:42;;;;;;;50.35;32.58;;;21.70;99.90;;;;;;5046641;28;20030;-83
2023/08/18 02:35:08;;;;;;;50.80;33.65;;;21.70;99.90;;;;;;5050308;28;20040;-84
2023/08/18 02:37:34;;;;;;;56.67;33.97;;;21.70;99.90;;;;;;5041326;28;20129;-82
2023/08/18 02:40:00;;;;;;;49.25;33.53;;;21.60;99.90;;;;;;5050259;28;20446;-82
2023/08/18 02:42:25;;;;;;;49.35;34.10;;;21.70;99.90;;;;;;5041339;28;20033;-82
2023/08/18 02:44:51;;;;;;;46.55;31.48;;;21.70;99.90;;;;;;5043737;28;20029;-84
2023/08/18 02:47:17;;;;;;;55.90;33.75;;;21.70;99.90;;;;;;5053390;28;20028;-84
2023/08/18 02:49:46;;;;;;;47.42;32.08;;;21.70;99.90;;;;;;5054330;28;20380;-84
2023/08/18 02:52:12;;;;;;;44.33;31.88;;;21.70;99.90;;;;;;5034302;28;20069;-82
2023/08/18 02:54:38;;;;;;;51.17;32.88;;;21.70;99.90;;;;;;5048804;28;20081;-81
2023/08/18 02:57:03;;;;;;;43.70;32.13;;;21.70;99.90;;;;;;5051240;28;20045;-83
2023/08/18 02:59:29;;;;;;;46.65;31.58;;;21.70;99.90;;;;;;5053132;28;20040;-82
2023/08/18 03:01:55;;;;;;;45.25;31.58;;;21.70;99.90;;;;;;5053026;28;20033;-82
2023/08/18 03:04:21;;;;;;;43.75;33.33;;;21.70;99.90;;;;;;5052001;28;20116;-82
2023/08/18 03:06:46;;;;;;;42.72;32.80;;;21.80;99.90;;;;;;5053136;28;20115;-83
2023/08/18 03:09:12;;;;;;;43.28;32.08;;;21.70;99.90;;;;;;5052872;28;20111;-81
2023/08/18 03:11:38;;;;;;;44.05;30.70;;;21.80;99.90;;;;;;5054185;28;20087;-83
2023/08/18 03:14:05;;;;;;;44.50;31.40;;;21.70;99.90;;;;;;5052945;28;20025;-84
2023/08/18 03:16:31;;;;;;;48.28;32.20;;;21.80;99.90;;;;;;5052795;28;20413;-82
2023/08/18 03:18:57;;;;;;;43.67;32.30;;;21.80;99.90;;;;;;5052522;28;20091;-82
2023/08/18 03:21:22;;;;;;;44.92;33.13;;;21.80;99.90;;;;;;5052755;28;20087;-82
2023/08/18 03:23:48;;;;;;;45.50;32.50;;;21.80;99.90;;;;;;5050580;28;20028;-83
2023/08/18 03:26:14;;;;;;;45.25;33.38;;;21.70;99.90;;;;;;5032782;28;20037;-84
2023/08/18 03:28:40;;;;;;;49.33;33.15;;;21.70;99.90;;;;;;5051922;28;20032;-82
2023/08/18 03:31:07;;;;;;;50.03;32.45;;;21.70;99.90;;;;;;5052535;28;20036;-81
2023/08/18 03:33:33;;;;;;;43.78;32.45;;;21.70;99.90;;;;;;5051647;28;20036;-82
2023/08/18 03:35:59;;;;;;;50.38;33.47;;;21.60;99.90;;;;;;5052180;28;20081;-81
2023/08/18 03:38:26;;;;;;;47.85;33.30;;;21.60;99.90;;;;;;5052583;28;20336;-82
2023/08/18 03:41:00;;;;;;;49.75;34.42;;;21.60;99.90;;;;;;5047922;28;20459;-81
2023/08/18 03:43:26;;;;;;;46.28;33.72;;;21.60;99.90;;;;;;5034921;28;20035;-83
2023/08/18 03:45:52;;;;;;;50.45;33.22;;;21.60;99.90;;;;;;5053821;28;20052;-81
2023/08/18 03:48:18;;;;;;;59.20;35.85;;;21.60;99.90;;;;;;5052114;28;20379;-81
2023/08/18 03:50:43;;;;;;;47.92;34.00;;;21.60;99.90;;;;;;5052329;28;20029;-83
2023/08/18 03:53:09;;;;;;;47.72;34.67;;;21.50;99.90;;;;;;5052298;28;20112;-83
2023/08/18 03:55:35;;;;;;;47.08;34.85;;;21.50;99.90;;;;;;5052054;28;20052;-83
2023/08/18 03:58:01;;;;;;;47.30;34.88;;;21.50;99.90;;;;;;5053609;28;20036;-81
2023/08/18 04:00:26;;;;;;;50.22;35.38;;;21.40;99.90;;;;;;5053324;28;20108;-82
2023/08/18 04:02:52;;;;;;;47.63;35.08;;;21.40;99.90;;;;;;5052458;28;20052;-83
2023/08/18 04:05:18;;;;;;;50.13;34.63;;;21.40;99.90;;;;;;5053676;28;20111;-82
2023/08/18 04:07:43;;;;;;;46.72;33.65;;;21.40;99.90;;;;;;5053286;28;20399;-82
2023/08/18 04:10:09;;;;;;;55.17;35.20;;;21.40;99.90;;;;;;5052108;28;20033;-83
2023/08/18 04:12:35;;;;;;;50.33;34.78;;;21.40;99.90;;;;;;5053223;28;20037;-82
2023/08/18 04:15:01;;;;;;;55.15;35.67;;;21.30;99.90;;;;;;5053122;28;20124;-83
2023/08/18 04:17:26;;;;;;;51.92;36.25;;;21.30;99.90;;;;;;5054812;28;20490;-83
2023/08/18 04:19:52;;;;;;;52.33;35.80;;;21.30;99.90;;;;;;5057479;28;20029;-82
2023/08/18 04:22:18;;;;;;;49.22;35.83;;;21.30;99.90;;;;;;5055855;28;20028;-81
2023/08/18 04:24:44;;;;;;;54.40;37.33;;;21.30;99.90;;;;;;5057096;28;20040;-81
2023/08/18 04:27:09;;;;;;;53.08;36.08;;;21.30;99.90;;;;;;5056080;28;20531;-81
2023/08/18 04:29:35;;;;;;;49.85;36.65;;;21.30;99.90;;;;;;5055710;28;20040;-82
2023/08/18 04:32:01;;;;;;;51.97;36.53;;;21.30;99.90;;;;;;5055933;28;20037;-81
2023/08/18 04:34:28;;;;;;;50.67;35.08;;;21.30;99.90;;;;;;5043492;28;20040;-81
2023/08/18 04:36:54;;;;;;;50.10;34.40;;;21.30;99.90;;;;;;5056938;28;20029;-80
2023/08/18 04:39:21;;;;;;;44.95;33.38;;;21.40;99.90;;;;;;5055832;28;20021;-82
2023/08/18 04:41:46;;;;;;;48.03;34.72;;;21.30;99.90;;;;;;5056881;28;20155;-81
2023/08/18 04:44:12;;;;;;;48.58;34.05;;;21.40;99.90;;;;;;5056697;28;20104;-81
2023/08/18 04:46:38;;;;;;;48.13;33.60;;;21.40;99.90;;;;;;5056628;28;20118;-81
2023/08/18 04:49:04;;;;;;;49.17;34.30;;;21.40;99.90;;;;;;5043218;28;20048;-82
2023/08/18 04:51:29;;;;;;;47.75;33.00;;;21.40;99.90;;;;;;5044906;28;20534;-81
2023/08/18 04:53:55;;;;;;;47.50;34.47;;;21.50;99.90;;;;;;5056538;28;20047;-80
2023/08/18 04:56:21;;;;;;;48.97;33.53;;;21.50;99.90;;;;;;5056607;28;20449;-80
2023/08/18 04:58:46;;;;;;;46.25;32.97;;;21.60;99.90;;;;;;5055460;28;20379;-81
2023/08/18 05:01:12;;;;;;;45.78;34.28;;;21.60;99.90;;;;;;5055533;28;20036;-82
2023/08/18 05:03:38;;;;;;;49.88;34.13;;;21.70;99.90;;;;;;5056298;28;20078;-82
2023/08/18 05:06:08;;;;;;;43.85;31.85;;;21.60;99.90;;;;;;5056864;28;20043;-82
2023/08/18 05:08:36;;;;;;;41.72;31.88;;;21.70;99.90;;;;;;5055382;28;20534;-81
2023/08/18 05:11:09;;;;;;;47.92;33.30;;;21.70;99.90;;;;;;5054807;28;20064;-80
2023/08/18 05:13:36;;;;;;;43.08;33.17;;;;;;;;;;5056216;28;20036;-81
2023/08/18 05:16:03;;;;;;;43.90;32.10;;;;;;;;;;5056364;28;20226;-81
2023/08/18 05:18:29;;;;;;;43.78;32.38;;;;;;;;;;5056099;28;20017;-79
2023/08/18 05:20:56;;;;;;;46.80;33.45;;;;;;;;;;5056206;28;20463;-80
2023/08/18 05:23:22;;;;;;;43.58;31.65;;;;;;;;;;5056351;28;20036;-81
2023/08/18 05:25:53;;;;;;;46.67;31.05;;;;;;;;;;5055678;28;20382;-80
2023/08/18 05:28:19;;;;;;;43.75;30.88;;;;;;;;;;5054505;28;20021;-81
2023/08/18 05:30:46;;;;;;;42.42;29.95;;;;;;;;;;5054786;28;20594;-79
2023/08/18 05:33:12;;;;;;;39.63;28.75;;;;;;;;;;5050007;28;20450;-80
2023/08/18 05:35:38;;;;;;;41.80;27.83;;;;;;;;;;5054437;28;20036;-80
2023/08/18 05:38:10;;;;;;;43.42;28.50;;;;;;;;;;5045243;28;20031;-80
2023/08/18 05:40:42;;;;;;;39.60;27.05;;;;;;;;;;5036252;28;20040;-82
2023/08/18 05:43:12;;;;;;;39.67;27.40;;;;;;;;;;5054042;28;20021;-81
2023/08/18 05:45:40;;;;;;;44.90;28.15;;;;;;;;;;5048131;28;20033;-80
2023/08/18 05:48:06;;;;;;;38.53;27.40;;;;;;;;;;5051311;28;20037;-80
2023/08/18 05:50:33;;;;;;;36.72;26.02;;;;;;;;;;5051120;28;20033;-80
2023/08/18 05:52:59;;;;;;;37.95;27.77;;;;;;;;;;5043338;28;20025;-80
2023/08/18 05:55:26;;;;;;;40.45;27.50;;;;;;;;;;5053314;28;20495;-80
2023/08/18 05:57:52;;;;;;;41.25;26.60;;;;;;;;;;5037944;28;20481;-80
2023/08/18 06:00:19;;;;;;;37.75;25.73;;;;;;;;;;5054043;28;20124;-81
2023/08/18 06:02:45;;;;;;;36.47;25.38;;;;;;;;;;5054338;28;20020;-80
2023/08/18 06:05:14;;;;;;;38.65;25.58;;;;;;;;;;5055131;28;20120;-80
2023/08/18 06:07:40;;;;;;;38.97;25.42;;;;;;;;;;5054890;28;20024;-81
2023/08/18 06:10:07;;;;;;;34.30;24.67;;;;;;;;;;5054103;28;20025;-82
2023/08/18 06:12:33;;;;;;;37.72;25.77;;;;;;;;;;5054119;28;20032;-81
2023/08/18 06:14:59;;;;;;;34.38;23.92;;;;;;;;;;5055124;28;20056;-80
2023/08/18 06:17:25;;;;;;;33.92;24.67;;;;;;;;;;5054291;28;20374;-82
2023/08/18 06:19:52;;;;;;;37.08;24.92;;;;;;;;;;5054314;28;20459;-81
2023/08/18 06:22:18;;;;;;;37.45;25.00;;;;;;;;;;5054985;28;20025;-82
2023/08/18 06:24:44;;;;;;;35.80;25.60;;;;;;;;;;5054002;28;20029;-80
2023/08/18 06:27:10;;;;;;;37.88;25.20;;;;;;;;;;5053520;28;20075;-80
2023/08/18 06:29:38;;;;;;;36.83;23.77;;;;;;;;;;5054983;28;20025;-80
2023/08/18 06:32:04;;;;;;;36.92;24.70;;;;;;;;;;5052938;28;20021;-80
2023/08/18 06:34:30;;;;;;;39.67;25.48;;;;;;;;;;5037483;28;20025;-80
2023/08/18 06:36:56;;;;;;;34.53;22.75;;;;;;;;;;5052777;28;20143;-80
2023/08/18 06:39:23;;;;;;;34.60;22.95;;;;;;;;;;5034012;28;20018;-82
2023/08/18 06:41:49;;;;;;;36.15;23.88;;;;;;;;;;5049892;28;20036;-83
2023/08/18 06:44:15;;;;;;;37.33;23.23;;;;;;;;;;5050170;28;20026;-81
2023/08/18 06:46:41;;;;;;;32.40;23.60;;;;;;;;;;5050153;28;20033;-80
2023/08/18 06:49:07;;;;;;;33.30;23.00;;;;;;;;;;5049611;28;20036;-81
2023/08/18 06:51:33;;;;;;;31.55;22.27;;;;;;;;;;5050005;28;20025;-81
2023/08/18 06:53:59;;;;;;;32.00;23.17;;;;;;;;;;5052924;28;20025;-80
2023/08/18 06:56:26;;;;;;;37.90;22.10;;;;;;;;;;5052890;28;20045;-81
2023/08/18 06:58:52;;;;;;;29.55;21.92;;;;;;;;;;5054866;28;20075;-81
2023/08/18 07:01:18;;;;;;;34.92;21.88;;;;;;;;;;5053236;28;20387;-79
2023/08/18 07:03:44;;;;;;;29.75;21.80;;;;;;;;;;5053054;28;20040;-80
2023/08/18 07:06:10;;;;;;;31.10;21.17;;;;;;;;;;5052929;28;20025;-79
2023/08/18 07:08:36;;;;;;;32.97;22.30;;;;;;;;;;5053024;28;20493;-82
2023/08/18 07:11:03;;;;;;;36.80;20.98;;;;;;;;;;5053545;28;20103;-81
2023/08/18 07:13:29;;;;;;;31.08;20.55;;;;;;;;;;5052939;28;20471;-80
2023/08/18 07:15:55;;;;;;;30.23;20.33;;;;;;;;;;5053665;28;20426;-82
2023/08/18 07:18:21;;;;;;;33.75;21.02;;;;;;;;;;5054451;28;20028;-80
2023/08/18 07:20:47;;;;;;;31.05;20.10;;;;;;;;;;5052970;28;20056;-79
2023/08/18 07:23:14;;;;;;;28.60;18.92;;;;;;;;;;5052483;28;20060;-81
2023/08/18 07:25:42;;;;;;;24.38;17.27;;;;;;;;;;5052755;28;20025;-80
2023/08/18 07:28:08;;;;;;;30.92;18.98;;;;;;;;;;5052688;28;20048;-81
2023/08/18 07:30:34;;;;;;;29.80;19.75;;;;;;;;;;5052318;28;20025;-81
2023/08/18 07:33:00;;;;;;;30.15;18.75;;;;;;;;;;5045884;28;20017;-80
2023/08/18 07:35:27;;;;;;;27.98;17.98;;;;;;;;;;5052203;28;20043;-83
2023/08/18 07:37:53;;;;;;;23.58;17.55;;;;;;;;;;5052171;28;20054;-82
2023/08/18 07:40:19;;;;;;;21.77;17.83;;;;;;;;;;5052610;28;20052;-82
2023/08/18 07:42:46;;;;;;;23.90;15.73;;;;;;;;;;5052445;28;20422;-83
2023/08/18 07:45:12;;;;;;;22.55;16.42;;;;;;;;;;5042562;28;20056;-83
2023/08/18 07:47:38;;;;;;;24.73;16.77;;;;;;;;;;5049116;28;20022;-82
2023/08/18 07:50:09;;;;;;;21.38;14.70;;;;;;;;;;5048802;28;20036;-82
2023/08/18 07:52:35;;;;;;;18.98;14.18;;;;;;;;;;5050067;28;20075;-81
2023/08/18 07:55:02;;;;;;;24.80;16.60;;;;;;;;;;5052061;28;20049;-83
2023/08/18 07:57:28;;;;;;;21.55;13.55;;;;;;;;;;5035450;28;20051;-83
2023/08/18 07:59:55;;;;;;;17.77;14.10;;;;;;;;;;5048682;28;20022;-83
2023/08/18 08:02:21;;;;;;;18.45;12.68;;;;;;;;;;5048917;28;20037;-83
2023/08/18 08:04:47;;;;;;;23.80;13.57;;;;;;;;;;5048473;28;20040;-81
2023/08/18 08:07:13;;;;;;;19.15;14.45;;;;;;;;;;5048651;28;20025;-84
2023/08/18 08:13:03;;;;;;;21.15;14.65;;;;;;;;;;5111047;27;20571;-81
2023/08/18 08:15:29;;;;;;;20.67;15.38;;;;;;;;;;5110547;28;20042;-82
2023/08/18 08:17:55;;;;;;;26.70;14.90;;;;;;;;;;5110277;28;20466;-84
2023/08/18 08:20:21;;;;;;;19.75;14.07;;;;;;;;;;5110110;28;20012;-77
2023/08/18 08:22:48;;;;;;;22.27;13.75;;;;;;;;;;5110175;28;20028;-76
2023/08/18 08:25:15;;;;;;;20.30;12.25;;;;;;;;;;5111030;28;20051;-79
2023/08/18 08:27:41;;;;;;;14.82;11.48;;;;;;;;;;5109828;28;20048;-78
2023/08/18 08:30:08;;;;;;;18.20;11.40;;;;;;;;;;5110054;28;20047;-78
2023/08/18 08:32:35;;;;;;;15.57;11.15;;;;;;;;;;5109642;28;20024;-80
2023/08/18 08:35:01;;;;;;;17.80;11.05;;;;;;;;;;5109677;28;20381;-79
2023/08/18 08:37:27;;;;;;;16.20;11.18;;;;;;;;;;5109179;28;20090;-82
2023/08/18 08:39:53;;;;;;;16.65;11.45;;;;;;;;;;5109703;28;20059;-81
2023/08/18 08:42:20;;;;;;;17.33;11.30;;;;;;;;;;5109841;28;20035;-81
2023/08/18 08:47:26;;;;;;;20.83;10.52;;;;;;;;;;4920098;23;20074;-79
2023/08/18 08:49:58;;;;;;;17.90;11.15;;;;;;;;;;4980849;28;20475;-80
2023/08/18 08:52:25;;;;;;;18.60;10.10;;;;;;;;;;4992548;28;20034;-80
2023/08/18 08:54:56;;;;;;;16.27;9.73;;;;;;;;;;4986986;28;20022;-80
2023/08/18 08:57:23;;;;;;;17.30;9.97;;;;;;;;;;4990024;28;20381;-80
2023/08/18 08:59:49;;;;;;;15.48;10.10;;;;;;;;;;4989605;28;20110;-81
2023/08/18 09:02:16;;;;;;;15.38;10.23;;;;;;;;;;4989491;28;20495;-79
2023/08/18 09:04:42;;;;;;;16.40;10.32;;;;;;;;;;4990994;28;20441;-80
2023/08/18 09:07:14;;;;;;;16.02;11.73;;;;;;;;;;4977837;28;20034;-80
2023/08/18 09:09:41;;;;;;;19.15;10.95;;;;;;;;;;4989509;28;20388;-79
2023/08/18 09:12:08;;;;;;;14.27;10.85;;;;;;;;;;4989181;28;20038;-79
2023/08/18 09:14:34;;;;;;;18.73;10.90;;;;;;;;;;4989301;28;20058;-80
2023/08/18 09:17:07;;;;;;;14.48;9.27;;;;;;;;;;5005947;28;20469;-79
2023/08/18 09:19:33;;;;;;;15.88;9.20;;;;;;;;;;4988229;28;20023;-80
2023/08/18 09:22:00;;;;;;;13.25;9.73;;;;;;;;;;4989540;28;20019;-80
2023/08/18 09:24:30;;;;;;;13.98;9.07;;;;;;;;;;4975967;28;20038;-79
2023/08/18 09:27:05;;;;;;;17.65;9.98;;;;;;;;;;4976072;28;20106;-79
2023/08/18 09:29:32;;;;;;;22.55;8.52;;;;;;;;;;4975951;28;20089;-79
2023/08/18 09:31:58;;;;;;;14.55;8.65;;;;;;;;;;4975695;28;20031;-80
2023/08/18 09:34:25;;;;;;;17.02;8.98;;;;;;;;;;4974936;28;20114;-80
2023/08/18 09:36:55;;;;;;;13.30;8.95;;;;;;;;;;4975796;28;20034;-79
2023/08/18 09:39:21;;;;;;;10.57;8.20;;;;;;;;;;4975845;28;20046;-80
2023/08/18 09:41:50;;;;;;;10.30;8.13;;;;;;;;;;4983968;28;20504;-80
2023/08/18 09:44:17;;;;;;;12.15;8.68;;;;;;;;;;4976124;28;20093;-79
2023/08/18 09:46:47;;;;;;;19.40;8.35;;;;;;;;;;4975694;28;20039;-80
2023/08/18 09:49:16;;;;;;;11.10;8.30;;;;;;;;;;4975804;28;20027;-79
2023/08/18 09:51:42;;;;;;;12.77;9.43;;;;;;;;;;4975825;28;20062;-79
2023/08/18 09:54:11;;;;;;;14.20;9.23;;;;;;;;;;4975601;28;20612;-79
2023/08/18 09:56:39;;;;;;;12.63;8.88;;;;;;;;;;4991510;28;20042;-80
2023/08/18 09:59:12;;;;;;;12.43;9.15;;;;;;;;;;4975848;28;20477;-79
2023/08/18 10:01:39;;;;;;;16.40;8.77;;;;;;;;;;4975523;28;20038;-79
2023/08/18 10:04:06;;;;;;;12.20;8.55;;;;;;;;;;4975571;28;20026;-80
2023/08/18 10:06:36;;;;;;;21.65;9.70;;;;;;;;;;4975402;28;20604;-79
2023/08/18 10:09:02;;;;;;;16.50;9.52;;;;;;;;;;4975580;28;20046;-79
2023/08/18 10:11:28;;;;;;;14.30;9.15;;;;;;;;;;4974942;28;20035;-80
2023/08/18 10:13:55;;;;;;;13.82;9.43;;;;;;;;;;4975325;28;20046;-79
2023/08/18 10:16:21;;;;;;;16.35;9.82;;;;;;;;;;4974951;28;20023;-80
2023/08/18 10:19:09;;;;;;;13.25;9.52;;;;;;;;;;4975291;28;20034;-81
2023/08/18 10:21:35;;;;;;;12.45;9.57;;;;;;;;;;4975493;28;20119;-80
2023/08/18 10:24:03;;;;;;;13.30;10.52;;;;;;;;;;4985993;28;20086;-80
2023/08/18 10:26:45;;;;;;;15.23;9.48;;;;;;;;;;4976595;28;20389;-81
2023/08/18 10:29:11;;;;;;;;;;;;;;;;;;4976844;28;20058;-80
2023/08/18 10:31:37;;;;;;;18.85;10.55;;;;;;;;;;5004993;28;20269;-81
2023/08/18 10:34:03;;;;;;;23.17;9.98;;;;;;;;;;4960948;28;20488;-81
2023/08/18 10:36:31;;;;;;;15.20;9.80;;;;;;;;;;4975504;28;20370;-81
2023/08/18 10:38:57;;;;;;;15.88;10.45;;;;;;;;;;4974654;28;20024;-81
2023/08/18 11:13:49;;;;;;;14.32;9.05;;;;;;;;;;6316437;22;20449;-80
2023/08/18 11:16:37;;;;;;;12.43;8.05;;;;;;;;;;6314845;22;20022;-80
2023/08/18 11:19:18;;;;;;;12.90;9.13;;;;;;;;;;6315254;22;20003;-80
2023/08/18 11:21:49;;;;;;;15.88;9.60;;;;;;;;;;6315352;22;20006;-79
2023/08/18 11:24:16;;;;;;;14.18;8.38;;;;;;;;;;6315311;22;20021;-80
2023/08/18 11:26:43;;;;;;;16.08;8.20;;;;;;;;;;6314962;22;20053;-77
2023/08/18 11:29:12;;;;;;;13.40;8.25;;;;;;;;;;6316598;22;20002;-82
2023/08/18 11:31:44;;;;;;;14.60;8.95;;;;;;;;;;6316535;22;20068;-84
2023/08/18 11:34:10;;;;;;;18.35;8.15;;;;;;;;;;6314430;22;20011;-85
2023/08/18 11:36:37;;;;;;;12.35;7.68;;;;;;;;;;6315230;22;20387;-85
2023/08/18 11:39:06;;;;;;;13.23;8.15;;;;;;;;;;6314705;22;19999;-84
2023/08/18 11:41:37;;;;;;;13.18;6.65;;;;;;;;;;6316199;22;20415;-84
2023/08/18 11:44:03;;;;;;;11.70;6.78;;;;;;;;;;6315345;22;19999;-86
2023/08/18 11:46:30;;;;;;;12.25;6.25;;;;;;;;;;6314958;22;20074;-86
2023/08/18 11:48:58;;;;;;;9.38;6.90;;;;;;;;;;6314138;22;20082;-84
2023/08/18 11:51:25;;;;;;;10.15;6.25;;;;;;;;;;6313803;22;20011;-85
2023/08/18 11:53:51;;;;;;;10.60;6.47;;;;;;;;;;6313815;22;20010;-86
2023/08/18 11:56:17;;;;;;;10.50;6.80;;;;;;;;;;6313707;22;20014;-86
2023/08/18 11:58:43;;;;;;;10.93;6.30;;;;;;;;;;6313784;22;20488;-85
2023/08/18 12:01:09;;;;;;;8.60;6.63;;;;;;;;;;6314508;22;19999;-82
2023/08/18 12:03:35;;;;;;;12.02;7.15;;;;;;;;;;6314825;22;20013;-84
2023/08/18 12:06:02;;;;;;;9.43;6.15;;;;;;;;;;6312702;22;20343;-86
2023/08/18 12:08:28;;;;;;;11.77;7.13;;;;;;;;;;6307660;22;20105;-84
2023/08/18 12:10:57;;;;;;;7.85;6.13;;;;;;;;;;6307732;22;20435;-84
2023/08/18 12:13:23;;;;;;;11.48;7.00;;;;;;;;;;6307585;22;20003;-83
2023/08/18 12:15:49;;;;;;;11.32;6.63;;;;;;;;;;6307192;22;20086;-86
2023/08/18 12:18:15;;;;;;;10.75;6.78;;;;;;;;;;6307242;22;20335;-84
2023/08/18 12:20:41;;;;;;;13.30;7.03;;;;;;;;;;6306131;22;20007;-83
2023/08/18 12:23:08;;;;;;;9.13;6.60;;;;;;;;;;6305562;22;20082;-84
2023/08/18 12:25:34;;;;;;;9.57;6.88;;;;;;;;;;6306564;22;20010;-84
2023/08/18 12:28:00;;;;;;;14.20;7.45;;;;;;;;;;6305774;22;20088;-84
2023/08/18 12:30:26;;;;;;;14.75;7.53;;;;;;;;;;6306006;22;20053;-82
2023/08/18 12:32:52;;;;;;;11.02;6.93;;;;;;;;;;6306304;22;20009;-84
2023/08/18 12:35:18;;;;;;;10.40;7.18;;;;;;;;;;6306514;22;20011;-83
2023/08/18 12:37:45;;;;;;;10.38;7.43;;;;;;;;;;6306261;22;20006;-81
2023/08/18 12:40:11;;;;;;;14.88;6.75;;;;;;;;;;6306500;22;20034;-83
2023/08/18 12:42:41;;;;;;;11.75;7.75;;;;;;;;;;6306498;22;20030;-84
2023/08/18 12:45:08;;;;;;;18.70;7.03;;;;;;;;;;6306659;22;20086;-81
2023/08/18 12:47:35;;;;;;;10.45;6.75;;;;;;;;;;6308440;22;20003;-83
2023/08/18 12:50:02;;;;;;;13.57;7.38;;;;;;;;;;6306750;22;20035;-83
2023/08/18 12:52:28;;;;;;;15.43;7.45;;;;;;;;;;6306128;22;20430;-84
2023/08/18 12:54:54;;;;;;;17.70;7.60;;;;;;;;;;6306642;22;20090;-83
2023/08/18 12:57:20;;;;;;;15.07;7.22;;;;;;;;;;6306978;22;19995;-82
2023/08/18 12:59:46;;;;;;;9.40;7.63;;;;;;;;;;6306395;22;20049;-83
2023/08/18 13:02:12;;;;;;;13.48;7.00;;;;;;;;;;6306539;22;20003;-83
2023/08/18 13:04:39;;;;;;;13.20;7.97;;;;;;;;;;6307566;22;20068;-82
2023/08/18 13:07:05;;;;;;;12.95;7.30;;;;;;;;;;6307824;22;20070;-84
2023/08/18 13:09:31;;;;;;;15.18;7.60;;;;;;;;;;6308256;22;20053;-82
2023/08/18 13:11:57;;;;;;;10.27;7.32;;;;;;;;;;6307693;22;20070;-83
2023/08/18 13:14:23;;;;;;;9.60;7.40;;;;;;;;;;6308031;22;19999;-82
2023/08/18 13:16:50;;;;;;;11.90;7.72;;;;;;;;;;6308231;22;20000;-82
2023/08/18 13:19:16;;;;;;;16.75;7.53;;;;;;;;;;6305557;22;19999;-82
2023/08/18 13:21:42;;;;;;;10.50;7.18;;;;;;;;;;6307578;22;20434;-83
2023/08/18 13:24:09;;;;;;;13.02;8.15;;;;;;;;;;6306437;22;20037;-85
2023/08/18 13:26:38;;;;;;;13.57;8.50;;;;;;;;;;6305803;22;20086;-86
2023/08/18 13:29:04;;;;;;;11.93;8.40;;;;;;;;;;6306812;22;19999;-85
2023/08/18 13:31:30;;;;;;;12.75;7.00;;;;;;;;;;6307640;22;19999;-85
2023/08/18 13:33:56;;;;;;;14.23;7.43;;;;;;;;;;6305992;22;19999;-84
2023/08/18 13:36:22;;;;;;;9.73;6.60;;;;;;;;;;6307574;22;20002;-84
2023/08/18 13:38:49;;;;;;;15.48;6.68;;;;;;;;;;6306159;22;20003;-86
2023/08/18 13:41:15;;;;;;;15.60;6.97;;;;;;;;;;6305055;22;19999;-84
2023/08/18 13:43:41;;;;;;;11.95;6.95;;;;;;;;;;6304600;22;20010;-86
2023/08/18 13:46:07;;;;;;;16.58;7.80;;;;;;;;;;6305395;22;20331;-86
2023/08/18 13:48:33;;;;;;;10.57;7.68;;;;;;;;;;6305813;22;20065;-84
2023/08/18 13:50:59;;;;;;;11.35;8.05;;;;;;;;;;6274163;22;20337;-84
2023/08/18 13:53:29;;;;;;;11.68;8.90;;;;;;;;;;6248155;22;20023;-85
2023/08/18 13:55:55;;;;;;;13.52;8.65;;;;;;;;;;6248375;22;20007;-84
2023/08/18 13:58:21;;;;;;;11.55;8.45;;;;;;;;;;6272363;22;20028;-83
2023/08/18 14:00:47;;;;;;;16.67;9.05;;;;;;;;;;6246728;22;20004;-83
2023/08/18 14:03:13;;;;;;;15.07;8.52;;;;;;;;;;6248198;22;20082;-85
2023/08/18 14:05:42;;;;;;;14.40;9.30;;;;;;;;;;6248003;22;20007;-85
2023/08/18 14:08:09;;;;;;;14.27;9.82;;;;;;;;;;6248610;22;20023;-84
2023/08/18 14:10:36;;;;;;;14.55;9.95;;;;;;;;;;6249119;22;20119;-85